createdAt,value
2023-02-19T00:01:31.628Z,23.53
2023-02-19T00:04:00.398Z,24.60
2023-02-19T00:09:26.890Z,24.50
2023-02-19T00:11:55.779Z,22.87
2023-02-19T00:14:23.295Z,20.20
2023-02-19T00:16:50.929Z,15.37
2023-02-19T00:22:16.685Z,11.23
2023-02-19T00:24:44.136Z,9.57
2023-02-19T00:27:35.602Z,6.53
2023-02-19T00:30:04.746Z,5.43
2023-02-19T00:35:20.686Z,4.63
2023-02-19T00:37:48.191Z,4.03
2023-02-19T00:40:15.862Z,5.60
2023-02-19T00:42:43.294Z,4.07
2023-02-19T00:45:12.245Z,3.90
2023-02-19T00:50:42.690Z,5.60
2023-02-19T00:53:10.129Z,7.30
2023-02-19T00:55:37.562Z,5.97
2023-02-19T00:58:05.080Z,8.27
2023-02-19T01:03:36.311Z,6.77
2023-02-19T01:06:03.996Z,8.93
2023-02-19T01:08:32.018Z,8.83
2023-02-19T01:14:00.456Z,6.83
2023-02-19T01:16:28.561Z,10.03
2023-02-19T01:18:58.041Z,7.50
2023-02-19T01:24:28.170Z,8.13
2023-02-19T01:26:55.610Z,7.63
2023-02-19T01:29:23.087Z,8.87
2023-02-19T01:32:04.476Z,8.47
2023-02-19T01:34:34.055Z,7.93
2023-02-19T01:37:02.001Z,9.13
2023-02-19T01:39:29.459Z,5.00
2023-02-19T01:41:58.459Z,4.27
2023-02-19T01:45:14.631Z,6.53
2023-02-19T01:47:42.096Z,7.17
2023-02-19T01:50:10.950Z,6.47
2023-02-19T01:52:38.473Z,5.77
2023-02-19T01:55:08.233Z,5.93
2023-02-19T02:00:26.705Z,9.17
2023-02-19T02:06:05.731Z,12.23
2023-02-19T02:08:51.949Z,11.93
2023-02-19T02:11:24.341Z,18.37
2023-02-19T02:13:52.572Z,15.97
2023-02-19T02:19:32.060Z,14.30
2023-02-19T02:22:08.227Z,11.70
2023-02-19T02:25:18.371Z,18.80
2023-02-19T02:27:54.607Z,16.60
2023-02-19T02:30:41.284Z,19.13
2023-02-19T02:36:14.214Z,16.83
2023-02-19T02:38:44.065Z,23.10
2023-02-19T02:41:13.358Z,22.30
2023-02-19T02:43:41.105Z,27.33
2023-02-19T02:49:14.053Z,24.00
2023-02-19T02:51:44.576Z,26.07
2023-02-19T02:54:39.183Z,22.43
2023-02-19T02:57:14.773Z,20.80
2023-02-19T02:59:49.008Z,24.57
2023-02-19T03:02:22.881Z,23.37
2023-02-19T03:07:46.017Z,26.40
2023-02-19T03:10:18.576Z,29.57
2023-02-19T03:15:49.059Z,25.50
2023-02-19T03:21:20.235Z,26.73
2023-02-19T03:24:07.426Z,22.37
2023-02-19T03:26:35.204Z,29.13
2023-02-19T03:29:21.940Z,26.80
2023-02-19T03:32:06.540Z,23.10
2023-02-19T03:34:37.606Z,32.37
2023-02-19T03:37:11.506Z,27.83
2023-02-19T03:39:45.146Z,28.50
2023-02-19T03:42:21.731Z,32.17
2023-02-19T03:47:43.550Z,32.33
2023-02-19T03:50:18.001Z,21.93
2023-02-19T03:52:55.126Z,25.43
2023-02-19T03:55:27.640Z,25.17
2023-02-19T03:57:58.295Z,30.20
2023-02-19T04:00:32.369Z,28.10
2023-02-19T04:03:04.914Z,30.40
2023-02-19T04:05:34.344Z,29.00
2023-02-19T04:08:05.607Z,25.13
2023-02-19T04:10:41.446Z,24.07
2023-02-19T04:13:20.647Z,28.17
2023-02-19T04:15:50.383Z,25.50
2023-02-19T04:18:19.899Z,14.83
2023-02-19T04:20:48.559Z,22.53
2023-02-19T04:26:09.351Z,27.13
2023-02-19T04:28:36.974Z,19.00
2023-02-19T04:31:04.601Z,26.73
2023-02-19T04:33:32.050Z,22.07
2023-02-19T04:35:59.455Z,22.53
2023-02-19T04:38:27.012Z,23.70
2023-02-19T04:40:54.469Z,28.27
2023-02-19T04:43:23.278Z,19.40
2023-02-19T04:48:42.972Z,20.33
2023-02-19T04:51:11.311Z,20.87
2023-02-19T04:56:37.749Z,17.57
2023-02-19T04:59:06.769Z,13.90
2023-02-19T05:01:34.249Z,16.90
2023-02-19T05:04:01.793Z,18.40
2023-02-19T05:06:29.281Z,22.83
2023-02-19T05:08:56.942Z,16.60
2023-02-19T05:11:24.613Z,20.50
2023-02-19T05:13:52.105Z,16.00
2023-02-19T05:19:19.043Z,12.67
2023-02-19T05:21:46.534Z,13.57
2023-02-19T05:24:14.389Z,12.43
2023-02-19T05:26:44.048Z,11.90
2023-02-19T05:29:12.505Z,18.43
2023-02-19T05:34:39.634Z,9.60
2023-02-19T05:37:07.054Z,14.27
2023-02-19T05:39:34.885Z,16.03
2023-02-19T05:42:02.294Z,15.37
2023-02-19T05:44:30.139Z,13.03
2023-02-19T05:49:57.065Z,8.47
2023-02-19T05:52:24.502Z,10.33
2023-02-19T05:54:51.894Z,8.57
2023-02-19T05:57:20.526Z,10.90
2023-02-19T05:59:48.086Z,9.77
2023-02-19T06:02:15.527Z,8.10
2023-02-19T06:04:42.949Z,9.50
2023-02-19T06:07:11.714Z,11.17
2023-02-19T06:09:39.439Z,13.00
2023-02-19T06:12:08.175Z,10.10
2023-02-19T06:14:35.635Z,10.80
2023-02-19T06:19:51.775Z,15.20
2023-02-19T06:22:20.680Z,11.40
2023-02-19T06:24:48.339Z,12.90
2023-02-19T06:27:40.956Z,10.63
2023-02-19T06:30:09.721Z,13.13
2023-02-19T06:35:25.683Z,5.17
2023-02-19T06:37:54.427Z,4.10
2023-02-19T06:40:21.938Z,4.17
2023-02-19T06:42:49.456Z,4.00
2023-02-19T06:45:17.036Z,2.87
2023-02-19T06:47:44.460Z,3.10
2023-02-19T06:50:11.935Z,3.00
2023-02-19T06:52:39.407Z,4.40
2023-02-19T06:55:08.281Z,3.07
2023-02-19T07:00:24.974Z,3.00
2023-02-19T07:02:56.298Z,2.80
2023-02-19T07:05:25.397Z,2.50
2023-02-19T07:07:52.810Z,3.80
2023-02-19T07:10:21.560Z,2.57
2023-02-19T07:16:02.138Z,3.23
2023-02-19T07:18:30.518Z,4.03
2023-02-19T07:21:03.220Z,4.70
2023-02-19T07:26:35.570Z,3.50
2023-02-19T07:29:03.282Z,4.10
2023-02-19T07:31:30.832Z,4.87
2023-02-19T07:33:58.300Z,3.70
2023-02-19T07:36:26.057Z,3.40
2023-02-19T07:38:57.356Z,3.93
2023-02-19T07:44:16.650Z,2.97
2023-02-19T07:46:45.076Z,2.40
2023-02-19T07:49:12.511Z,2.77
2023-02-19T07:51:40.066Z,2.07
2023-02-19T07:57:05.675Z,2.07
2023-02-19T07:59:35.341Z,1.87
2023-02-19T08:02:20.297Z,2.13
2023-02-19T08:07:31.997Z,2.53
2023-02-19T08:13:22.555Z,2.50
2023-02-19T08:15:51.273Z,2.27
2023-02-19T08:18:19.935Z,2.43
2023-02-19T08:20:47.748Z,3.93
2023-02-19T08:23:16.728Z,2.83
2023-02-19T08:28:51.702Z,2.50
2023-02-19T08:34:21.984Z,2.50
2023-02-19T08:36:49.634Z,2.87
2023-02-19T08:39:21.025Z,2.60
2023-02-19T08:41:50.447Z,2.60
2023-02-19T08:44:17.836Z,2.60
2023-02-19T08:46:45.281Z,2.53
2023-02-19T08:49:13.694Z,2.95
2023-02-19T08:51:41.132Z,3.20
2023-02-19T08:54:08.520Z,3.30
2023-02-19T08:56:35.955Z,3.50
2023-02-19T08:59:04.733Z,3.40
2023-02-19T09:04:36.294Z,3.83
2023-02-19T09:07:07.511Z,4.00
2023-02-19T09:09:35.041Z,4.40
2023-02-19T09:14:53.377Z,4.37
2023-02-19T09:17:20.873Z,6.87
2023-02-19T09:19:50.604Z,6.40
2023-02-19T09:22:18.312Z,4.33
2023-02-19T09:24:45.985Z,4.80
2023-02-19T09:27:16.641Z,4.40
2023-02-19T09:29:44.156Z,4.47
2023-02-19T09:35:01.281Z,3.87
2023-02-19T09:37:29.064Z,6.57
2023-02-19T09:39:56.958Z,4.07
2023-02-19T09:42:25.971Z,4.90
2023-02-19T09:47:57.806Z,5.93
2023-02-19T09:50:33.520Z,4.40
2023-02-19T09:53:03.059Z,3.80
2023-02-19T09:55:34.628Z,4.00
2023-02-19T09:58:03.357Z,4.10
2023-02-19T10:00:33.030Z,4.63
2023-02-19T10:03:03.684Z,4.63
2023-02-19T10:05:33.138Z,4.17
2023-02-19T10:08:00.870Z,4.30
2023-02-19T10:10:31.211Z,4.30
2023-02-19T10:13:12.881Z,4.40
2023-02-19T10:18:45.117Z,4.77
2023-02-19T10:21:17.088Z,4.50
2023-02-19T10:26:46.447Z,4.37
2023-02-19T10:29:13.850Z,4.60
2023-02-19T10:31:41.321Z,4.57
2023-02-19T10:34:18.638Z,4.70
2023-02-19T10:36:48.699Z,4.70
2023-02-19T10:39:35.562Z,4.77
2023-02-19T10:42:03.707Z,4.83
2023-02-19T10:44:34.828Z,4.27
2023-02-19T10:47:02.525Z,4.60
2023-02-19T10:49:32.886Z,3.90
2023-02-19T10:52:05.353Z,4.47
2023-02-19T10:54:35.320Z,4.77
2023-02-19T10:57:25.519Z,5.10
2023-02-19T10:59:57.452Z,5.00
2023-02-19T11:02:25.691Z,4.97
2023-02-19T11:05:19.701Z,5.20
2023-02-19T11:07:50.445Z,4.80
2023-02-19T11:13:16.103Z,5.13
2023-02-19T11:15:44.135Z,5.50
2023-02-19T11:18:20.077Z,5.00
2023-02-19T11:20:50.606Z,5.70
2023-02-19T11:26:17.435Z,5.20
2023-02-19T11:28:45.146Z,5.17
2023-02-19T11:31:26.139Z,5.33
2023-02-19T11:33:57.287Z,5.50
2023-02-19T11:36:34.014Z,5.70
2023-02-19T11:39:22.997Z,5.90
2023-02-19T11:42:01.528Z,5.47
2023-02-19T11:44:35.581Z,6.13
2023-02-19T11:47:23.642Z,5.40
2023-02-19T11:49:56.678Z,5.50
2023-02-19T11:55:36.500Z,5.33
2023-02-19T11:58:14.102Z,5.53
2023-02-19T12:00:46.990Z,5.30
2023-02-19T12:03:43.475Z,5.13
2023-02-19T12:06:24.204Z,5.53
2023-02-19T12:09:24.548Z,5.07
2023-02-19T12:11:59.463Z,4.97
2023-02-19T12:14:51.240Z,5.30
2023-02-19T12:17:32.498Z,4.60
2023-02-19T12:20:08.247Z,9.67
2023-02-19T12:22:42.817Z,4.73
2023-02-19T12:28:19.012Z,4.60
2023-02-19T12:33:57.887Z,5.20
2023-02-19T12:36:28.943Z,5.57
2023-02-19T12:42:04.634Z,5.40
2023-02-19T12:44:40.095Z,5.37
2023-02-19T12:47:08.224Z,5.67
2023-02-19T12:49:38.079Z,5.77
2023-02-19T12:52:09.420Z,5.43
2023-02-19T12:54:39.473Z,5.10
2023-02-19T13:00:25.079Z,5.40
2023-02-19T13:02:57.008Z,5.40
2023-02-19T13:05:31.596Z,5.10
2023-02-19T13:08:03.410Z,5.50
2023-02-19T13:13:34.329Z,5.70
2023-02-19T13:16:09.899Z,5.80
2023-02-19T13:18:42.365Z,5.73
2023-02-19T13:21:10.181Z,6.03
2023-02-19T13:23:57.161Z,5.65
2023-02-19T13:26:42.608Z,5.70
2023-02-19T13:32:19.999Z,5.43
2023-02-19T13:34:56.731Z,5.40
2023-02-19T13:37:24.845Z,5.50
2023-02-19T13:39:53.592Z,5.70
2023-02-19T13:42:33.573Z,6.00
2023-02-19T13:45:02.310Z,6.10
2023-02-19T13:47:51.691Z,5.67
2023-02-19T13:50:21.650Z,5.93
2023-02-19T13:52:49.334Z,5.80
2023-02-19T13:55:52.272Z,5.30
2023-02-19T14:01:09.275Z,5.67
2023-02-19T14:03:50.813Z,5.97
2023-02-19T14:06:18.502Z,5.53
2023-02-19T14:08:55.870Z,5.37
2023-02-19T14:12:03.357Z,5.60
2023-02-19T14:14:35.807Z,5.20
2023-02-19T14:17:19.057Z,5.57
2023-02-19T14:20:27.111Z,5.47
2023-02-19T14:23:17.496Z,4.80
2023-02-19T14:28:51.591Z,5.13
2023-02-19T14:31:29.111Z,5.30
2023-02-19T14:33:58.187Z,5.03
2023-02-19T14:39:31.400Z,5.10
2023-02-19T14:42:01.132Z,5.20
2023-02-19T14:44:30.331Z,5.17
2023-02-19T14:47:00.025Z,5.10
2023-02-19T14:49:31.659Z,5.20
2023-02-19T14:55:01.238Z,5.10
2023-02-19T14:57:30.714Z,5.60
2023-02-19T15:02:30.073Z,5.77
2023-02-19T15:08:02.073Z,5.23
2023-02-19T15:10:33.039Z,5.20
2023-02-19T15:13:03.677Z,4.90
2023-02-19T15:18:36.175Z,5.87
2023-02-19T15:21:05.590Z,5.33
2023-02-19T15:23:34.327Z,5.00
2023-02-19T15:29:03.455Z,5.30
2023-02-19T15:31:31.117Z,5.70
2023-02-19T15:33:58.619Z,5.40
2023-02-19T15:36:29.127Z,5.37
2023-02-19T15:38:58.611Z,5.63
2023-02-19T15:44:31.783Z,5.10
2023-02-19T15:47:00.358Z,4.90
2023-02-19T15:49:33.187Z,5.80
2023-02-19T15:52:03.441Z,5.03
2023-02-19T15:54:32.867Z,5.53
2023-02-19T15:57:03.300Z,5.33
2023-02-19T15:59:36.358Z,5.07
2023-02-19T16:02:27.888Z,4.77
2023-02-19T16:04:55.373Z,4.97
2023-02-19T16:10:20.968Z,5.20
2023-02-19T16:12:58.740Z,5.10
2023-02-19T16:18:38.530Z,4.97
2023-02-19T16:24:15.300Z,5.10
2023-02-19T16:26:43.790Z,5.10
2023-02-19T16:29:20.066Z,4.57
2023-02-19T16:31:51.952Z,4.83
2023-02-19T16:34:31.781Z,4.87
2023-02-19T16:36:59.221Z,5.20
2023-02-19T16:42:17.843Z,4.60
2023-02-19T16:44:45.978Z,5.37
2023-02-19T16:47:29.716Z,5.00
2023-02-19T16:50:00.720Z,5.30
2023-02-19T16:52:28.459Z,5.03
2023-02-19T16:54:56.001Z,4.97
2023-02-19T16:57:23.681Z,5.60
2023-02-19T17:02:48.055Z,5.43
2023-02-19T17:05:17.497Z,5.80
2023-02-19T17:07:44.890Z,6.77
2023-02-19T17:13:11.381Z,5.50
2023-02-19T17:15:38.803Z,5.30
2023-02-19T17:18:06.303Z,5.23
2023-02-19T17:20:35.415Z,6.87
2023-02-19T17:23:02.843Z,5.53
2023-02-19T17:25:30.251Z,5.50
2023-02-19T17:27:57.710Z,5.67
2023-02-19T17:30:28.279Z,5.70
2023-02-19T17:32:56.162Z,5.23
2023-02-19T17:35:24.142Z,5.47
2023-02-19T17:37:53.524Z,5.53
2023-02-19T17:40:32.175Z,6.90
2023-02-19T17:43:00.578Z,6.77
2023-02-19T17:48:35.364Z,7.43
2023-02-19T17:51:02.968Z,5.70
2023-02-19T17:56:23.093Z,5.63
2023-02-19T17:58:50.780Z,6.07
2023-02-19T18:01:18.606Z,5.60
2023-02-19T18:03:46.187Z,5.23
2023-02-19T18:06:14.037Z,6.80
2023-02-19T18:11:47.214Z,5.70
2023-02-19T18:14:14.661Z,7.23
2023-02-19T18:16:49.407Z,7.03
2023-02-19T18:19:17.506Z,4.80
2023-02-19T18:21:45.010Z,5.30
2023-02-19T18:24:12.498Z,6.37
2023-02-19T18:29:31.014Z,7.00
2023-02-19T18:31:58.656Z,9.87
2023-02-19T18:34:26.299Z,9.17
2023-02-19T18:36:53.795Z,13.20
2023-02-19T18:39:21.461Z,16.53
2023-02-19T18:44:56.393Z,10.17
2023-02-19T18:47:26.058Z,8.60
2023-02-19T18:49:55.454Z,9.77
2023-02-19T18:52:24.790Z,7.63
2023-02-19T18:57:54.502Z,7.23
2023-02-19T19:00:26.467Z,6.67
2023-02-19T19:02:58.461Z,8.20
2023-02-19T19:05:26.587Z,6.80
2023-02-19T19:10:52.419Z,9.20
2023-02-19T19:13:19.950Z,6.17
2023-02-19T19:15:51.505Z,7.37
2023-02-19T19:18:19.181Z,7.53
2023-02-19T19:23:35.408Z,9.07
2023-02-19T19:26:05.741Z,9.80
2023-02-19T19:28:33.488Z,12.03
2023-02-19T19:31:02.449Z,10.77
2023-02-19T19:33:30.490Z,13.00
2023-02-19T19:35:58.186Z,11.80
2023-02-19T19:38:25.690Z,11.03
2023-02-19T19:40:53.247Z,12.97
2023-02-19T19:43:20.708Z,13.13
2023-02-19T19:45:49.851Z,13.70
2023-02-19T19:48:18.686Z,12.63
2023-02-19T19:53:34.819Z,11.20
2023-02-19T19:56:02.849Z,10.90
2023-02-19T19:58:30.478Z,12.63
2023-02-19T20:00:59.049Z,11.33
2023-02-19T20:03:27.897Z,10.60
2023-02-19T20:05:56.111Z,9.93
2023-02-19T20:11:12.692Z,12.90
2023-02-19T20:13:40.358Z,10.47
2023-02-19T20:16:10.734Z,13.00
2023-02-19T20:18:39.655Z,11.50
2023-02-19T20:24:03.015Z,14.30
2023-02-19T20:26:31.794Z,11.90
2023-02-19T20:28:59.664Z,12.87
2023-02-19T20:31:27.462Z,12.40
2023-02-19T20:36:45.319Z,9.17
2023-02-19T20:39:13.002Z,12.13
2023-02-19T20:41:40.527Z,11.00
2023-02-19T20:44:08.118Z,13.57
2023-02-19T20:49:25.808Z,12.93
2023-02-19T20:54:55.131Z,9.73
2023-02-19T20:57:23.477Z,10.57
2023-02-19T20:59:51.102Z,11.60
2023-02-19T21:02:20.951Z,11.13
2023-02-19T21:04:48.870Z,10.60
2023-02-19T21:07:20.745Z,13.37
2023-02-19T21:09:48.418Z,12.80
2023-02-19T21:12:16.085Z,13.20
2023-02-19T21:14:43.618Z,14.17
2023-02-19T21:17:11.218Z,13.37
2023-02-19T21:19:38.748Z,10.97
2023-02-19T21:22:16.046Z,10.80
2023-02-19T21:24:49.339Z,10.50
2023-02-19T21:27:16.826Z,9.97
2023-02-19T21:29:44.328Z,10.87
2023-02-19T21:32:11.847Z,8.30
2023-02-19T21:34:42.943Z,11.20
2023-02-19T21:37:10.505Z,9.93
2023-02-19T21:39:38.732Z,8.70
2023-02-19T21:42:07.648Z,9.80
2023-02-19T21:44:35.163Z,9.27
2023-02-19T21:47:02.933Z,10.53
2023-02-19T21:49:30.592Z,8.93
2023-02-19T21:51:58.121Z,10.77
2023-02-19T21:54:26.127Z,10.93
2023-02-19T21:57:26.258Z,10.45
2023-02-19T21:59:55.128Z,8.97
2023-02-19T22:02:22.646Z,9.37
2023-02-19T22:04:54.443Z,9.87
2023-02-19T22:07:45.849Z,9.10
2023-02-19T22:10:13.396Z,9.20
2023-02-19T22:12:40.815Z,8.37
2023-02-19T22:18:11.763Z,8.43
2023-02-19T22:20:39.671Z,9.20
2023-02-19T22:23:07.234Z,9.67
2023-02-19T22:25:34.716Z,8.57
2023-02-19T22:30:47.805Z,9.97
2023-02-19T22:33:16.703Z,8.67
2023-02-19T22:35:44.225Z,7.50
2023-02-19T22:38:11.974Z,9.60
2023-02-19T22:40:39.511Z,9.50
2023-02-19T22:43:06.979Z,8.13
2023-02-19T22:45:35.615Z,8.63
2023-02-19T22:48:03.200Z,9.33
2023-02-19T22:53:25.246Z,10.97
2023-02-19T22:55:52.683Z,10.33
2023-02-19T22:58:20.126Z,10.57
2023-02-19T23:00:47.777Z,10.47
2023-02-19T23:03:15.294Z,10.60
2023-02-19T23:05:42.816Z,11.63
2023-02-19T23:08:10.380Z,11.27
2023-02-19T23:10:40.804Z,10.97
2023-02-19T23:13:08.300Z,10.50
2023-02-19T23:15:36.017Z,11.60
2023-02-19T23:20:52.396Z,12.83
2023-02-19T23:23:19.818Z,10.83
2023-02-19T23:25:48.668Z,11.37
2023-02-19T23:28:16.332Z,10.07
2023-02-19T23:30:44.075Z,10.23
2023-02-19T23:33:11.663Z,13.53
2023-02-19T23:38:36.291Z,10.83
2023-02-19T23:41:09.129Z,9.13
2023-02-19T23:43:36.603Z,11.30
2023-02-19T23:46:04.375Z,9.90
2023-02-19T23:48:32.297Z,9.30
2023-02-19T23:50:59.815Z,10.20
2023-02-19T23:53:27.384Z,11.83
2023-02-19T23:55:54.885Z,12.10
2023-02-19T23:58:23.734Z,12.93
